Time;durP1;ratioP1;P1;durP2;ratioP2;P2;SDS_P1;SDS_P2;PMS_P1;PMS_P2;Temp;Humidity;BMP_temperature;BMP_pressure;BME280_temperature;BME280_humidity;BME280_pressure;Samples;Min_cycle;Max_cycle;Signal;HPM_P1;HPM_P2
2022/04/05 00:00:36;;;;;;;12.43;6.17;;;;;;;5.91;51.63;99894.22;5407356;32;34718;-62
2022/04/05 00:03:38;;;;;;;15.10;7.43;;;;;;;5.82;51.82;99885.78;5405619;32;35691;-62
2022/04/05 00:06:40;;;;;;;17.13;8.73;;;;;;;5.96;51.64;99876.69;5397904;32;34932;-64
2022/04/05 00:09:42;;;;;;;15.17;7.60;;;;;;;5.96;51.61;99881.91;5402497;32;35820;-64
2022/04/05 00:12:44;;;;;;;14.97;8.33;;;;;;;6.10;51.27;99875.44;5394956;32;35539;-63
2022/04/05 00:15:46;;;;;;;16.93;8.53;;;;;;;6.17;50.97;99866.53;5397638;32;35819;-61
2022/04/05 00:18:49;;;;;;;14.83;7.83;;;;;;;5.80;52.26;99878.00;5403782;32;34076;-66
2022/04/05 00:21:54;;;;;;;17.80;9.00;;;;;;;6.26;50.94;99874.09;5414591;32;36301;-62
2022/04/05 00:24:56;;;;;;;15.53;8.20;;;;;;;6.09;51.39;99863.31;5381836;32;34702;-63
2022/04/05 00:27:58;;;;;;;15.03;8.13;;;;;;;6.31;50.76;99867.00;5414294;32;34768;-62
2022/04/05 00:31:00;;;;;;;16.77;8.57;;;;;;;5.75;52.03;99869.44;5398426;32;34704;-64
2022/04/05 00:34:02;;;;;;;15.13;8.50;;;;;;;6.54;50.71;99861.06;5416857;32;34915;-64
2022/04/05 00:37:05;;;;;;;15.83;8.40;;;;;;;6.08;51.87;99867.66;5401601;32;34957;-61
2022/04/05 00:40:08;;;;;;;15.57;8.13;;;;;;;5.97;52.27;99859.28;5399507;32;34685;-64
2022/04/05 00:43:10;;;;;;;15.43;7.77;;;;;;;6.87;49.92;99856.53;5420712;32;34525;-62
2022/04/05 00:46:12;;;;;;;14.47;7.97;;;;;;;6.61;50.31;99856.50;5400064;32;35251;-64
2022/04/05 00:49:29;;;;;;;14.77;8.17;;;;;;;6.86;49.73;99859.19;5410440;32;35275;-65
2022/04/05 00:52:31;;;;;;;14.63;7.70;;;;;;;6.35;51.81;99860.78;5412183;32;34785;-63
2022/04/05 00:55:35;;;;;;;14.43;6.87;;;;;;;6.39;51.05;99857.19;5405138;32;34109;-62
2022/04/05 00:58:38;;;;;;;15.82;8.68;;;;;;;6.08;52.58;99851.16;5398813;32;36841;-64
2022/04/05 01:01:40;;;;;;;14.63;7.90;;;;;;;6.63;50.92;99854.69;5390284;32;34801;-64
2022/04/05 01:04:43;;;;;;;15.87;7.77;;;;;;;7.43;49.11;99853.78;5402232;32;34105;-63
2022/04/05 01:07:49;;;;;;;14.90;8.45;;;;;;;6.89;50.16;99849.53;5396000;32;33875;-63
2022/04/05 01:10:52;;;;;;;14.40;7.33;;;;;;;7.15;50.02;99843.44;5412565;32;44596;-64
2022/04/05 01:13:54;;;;;;;16.37;8.17;;;;;;;8.03;47.22;99842.00;5408053;32;34122;-63
2022/04/05 01:16:56;;;;;;;17.23;8.70;;;;;;;7.91;47.23;99839.84;5407201;32;34590;-63
2022/04/05 01:19:58;;;;;;;14.73;7.83;;;;;;;7.69;48.08;99833.72;5414394;32;36800;-63
2022/04/05 01:23:00;;;;;;;15.50;8.17;;;;;;;7.80;47.69;99837.66;5394371;32;33991;-63
2022/04/05 01:26:03;;;;;;;14.37;7.80;;;;;;;8.11;47.05;99837.38;5409184;32;34366;-64
2022/04/05 01:29:05;;;;;;;16.50;8.33;;;;;;;7.87;47.58;99843.50;5404358;32;35530;-63
2022/04/05 01:32:08;;;;;;;16.37;8.23;;;;;;;7.62;48.47;99832.22;5411069;32;34490;-64
2022/04/05 01:35:11;;;;;;;16.98;8.52;;;;;;;7.94;47.64;99831.06;5404345;32;33766;-63
2022/04/05 01:38:13;;;;;;;15.97;8.47;;;;;;;7.72;48.24;99838.81;5400296;32;35662;-63
2022/04/05 01:41:15;;;;;;;14.40;7.20;;;;;;;7.82;47.97;99832.34;5410133;32;34658;-62
2022/04/05 01:44:17;;;;;;;14.90;8.37;;;;;;;7.35;48.89;99834.91;5397321;32;34413;-62
2022/04/05 01:47:19;;;;;;;15.23;7.13;;;;;;;7.09;50.09;99829.72;5418761;32;34743;-63
2022/04/05 01:50:22;;;;;;;14.77;8.07;;;;;;;6.74;51.13;99829.94;5394934;32;44917;-62
2022/04/05 01:53:24;;;;;;;15.40;7.83;;;;;;;6.59;51.67;99832.22;5408850;32;34547;-63
2022/04/05 01:56:26;;;;;;;15.43;7.97;;;;;;;6.55;52.05;99830.59;5391505;32;34717;-63
2022/04/05 01:59:30;;;;;;;15.63;7.57;;;;;;;6.70;51.57;99824.91;5395698;32;34712;-64
2022/04/05 02:02:32;;;;;;;14.95;8.15;;;;;;;6.55;52.30;99825.37;5422160;32;34829;-63
2022/04/05 02:05:34;;;;;;;17.70;7.90;;;;;;;6.84;51.65;99812.25;5409208;32;34881;-62
2022/04/05 02:08:37;;;;;;;16.50;9.23;;;;;;;6.80;51.35;99810.63;5419385;32;35627;-63
2022/04/05 02:11:39;;;;;;;16.53;8.77;;;;;;;7.17;51.24;99801.56;5400294;32;34676;-63
2022/04/05 02:14:41;;;;;;;14.40;8.27;;;;;;;7.30;50.74;99795.00;5413392;32;34573;-64
2022/04/05 02:17:43;;;;;;;16.77;8.87;;;;;;;7.18;50.97;99800.66;5389810;32;34893;-63
2022/04/05 02:20:49;;;;;;;18.63;9.60;;;;;;;7.23;51.10;99793.50;5392719;32;34587;-64
2022/04/05 02:23:51;;;;;;;14.70;8.40;;;;;;;6.93;52.13;99800.63;5420561;32;46239;-64
2022/04/05 02:26:53;;;;;;;16.77;9.10;;;;;;;7.04;51.66;99796.75;5408192;32;34945;-64
2022/04/05 02:29:55;;;;;;;14.73;8.20;;;;;;;7.52;50.22;99793.31;5432626;32;35435;-64
2022/04/05 02:32:57;;;;;;;14.60;8.50;;;;;;;7.37;49.94;99785.19;5394162;32;35266;-64
2022/04/05 02:35:59;;;;;;;15.97;8.90;;;;;;;7.37;50.69;99775.56;5415541;32;34019;-63
2022/04/05 02:39:02;;;;;;;16.43;8.80;;;;;;;7.69;49.59;99778.78;5404078;32;34782;-64
2022/04/05 02:42:05;;;;;;;15.68;8.73;;;;;;;6.74;51.55;99779.47;5381107;32;34576;-62
2022/04/05 02:45:08;;;;;;;14.40;8.40;;;;;;;7.25;51.03;99776.00;5425048;32;35121;-63
2022/04/05 02:48:10;;;;;;;15.97;8.60;;;;;;;7.36;50.85;99786.94;5405529;32;35274;-64
2022/04/05 02:51:13;;;;;;;17.10;8.77;;;;;;;6.52;53.05;99771.50;5415171;32;35462;-64
2022/04/05 02:54:15;;;;;;;17.20;9.15;;;;;;;6.77;52.15;99779.41;5397693;32;35660;-64
2022/04/05 02:57:18;;;;;;;16.93;8.70;;;;;;;6.86;52.21;99776.47;5387930;32;35242;-62
2022/04/05 03:00:21;;;;;;;17.40;8.98;;;;;;;7.10;50.94;99776.53;5408136;32;37760;-63
2022/04/05 03:03:23;;;;;;;17.77;8.67;;;;;;;6.05;54.41;99786.88;5403705;32;35383;-64
2022/04/05 03:06:26;;;;;;;16.07;8.57;;;;;;;6.54;53.29;99774.06;5421938;32;34758;-62
2022/04/05 03:09:28;;;;;;;17.90;8.63;;;;;;;6.68;52.92;99774.44;5405709;32;33886;-65
2022/04/05 03:12:31;;;;;;;16.87;9.67;;;;;;;6.83;51.88;99771.34;5418324;32;35076;-62
2022/04/05 03:15:33;;;;;;;17.33;9.70;;;;;;;6.92;51.98;99767.56;5401941;32;35366;-62
2022/04/05 03:18:35;;;;;;;15.13;8.50;;;;;;;6.85;52.44;99766.06;5414095;32;35062;-62
2022/04/05 03:21:37;;;;;;;19.47;9.57;;;;;;;6.35;53.20;99765.97;5408133;32;34988;-63
2022/04/05 03:24:39;;;;;;;15.90;8.90;;;;;;;6.26;54.22;99758.44;5407338;32;34675;-62
2022/04/05 03:27:43;;;;;;;29.60;15.40;;;;;;;6.01;55.24;99764.41;5414213;32;34941;-62
2022/04/05 03:30:47;;;;;;;15.70;8.77;;;;;;;6.97;52.28;99744.75;5399349;32;34938;-62
2022/04/05 03:33:49;;;;;;;15.60;8.30;;;;;;;6.53;53.49;99754.06;5418060;32;35285;-63
2022/04/05 03:36:51;;;;;;;16.93;8.77;;;;;;;7.29;51.53;99751.47;5408055;32;44420;-63
2022/04/05 03:39:53;;;;;;;17.30;8.63;;;;;;;7.97;49.53;99739.34;5395981;32;34389;-62
2022/04/05 03:42:56;;;;;;;19.40;9.93;;;;;;;7.68;50.21;99743.06;5398340;32;35109;-63
2022/04/05 03:45:58;;;;;;;15.53;8.93;;;;;;;7.43;50.97;99740.50;5399024;32;35001;-62
2022/04/05 03:49:00;;;;;;;16.00;9.10;;;;;;;8.30;48.69;99734.53;5405937;32;34517;-62
2022/04/05 03:52:03;;;;;;;29.70;10.13;;;;;;;8.37;47.96;99731.66;5398984;32;35700;-63
2022/04/05 03:55:06;;;;;;;16.57;9.30;;;;;;;7.82;49.37;99732.94;5419350;32;34369;-63
2022/04/05 03:58:08;;;;;;;15.63;8.80;;;;;;;7.79;50.21;99741.75;5384313;32;34190;-64
2022/04/05 04:01:10;;;;;;;17.57;9.33;;;;;;;7.94;49.87;99732.47;5409339;32;34182;-63
2022/04/05 04:04:12;;;;;;;15.70;8.93;;;;;;;8.03;49.63;99726.87;5411527;32;33891;-63
2022/04/05 04:07:14;;;;;;;16.93;8.77;;;;;;;7.90;50.24;99736.09;5392991;32;269971;-62
2022/04/05 04:10:17;;;;;;;17.17;9.87;;;;;;;7.17;52.01;99741.44;5409656;32;35493;-63
2022/04/05 04:13:25;;;;;;;16.43;9.10;;;;;;;8.00;50.10;99732.22;5406807;32;44573;-62
2022/04/05 04:16:27;;;;;;;18.30;9.90;;;;;;;7.70;51.09;99731.63;5416008;32;35215;-64
2022/04/05 04:19:30;;;;;;;16.70;10.20;;;;;;;6.57;54.60;99737.38;5404148;32;34717;-64
2022/04/05 04:22:32;;;;;;;20.63;10.30;;;;;;;6.38;55.61;99735.41;5407546;32;35061;-63
2022/04/05 04:25:34;;;;;;;19.50;9.73;;;;;;;6.86;54.48;99737.28;5416134;32;34758;-63
2022/04/05 04:28:36;;;;;;;17.40;9.50;;;;;;;7.19;53.15;99735.25;5410256;32;34988;-64
2022/04/05 04:31:39;;;;;;;15.77;9.50;;;;;;;6.89;53.98;99741.53;5426589;32;34890;-64
2022/04/05 04:34:41;;;;;;;17.65;9.98;;;;;;;7.31;52.73;99728.72;5411824;32;35410;-63
2022/04/05 04:37:44;;;;;;;18.20;10.53;;;;;;;6.86;54.16;99742.50;5421494;32;34230;-64
2022/04/05 04:40:47;;;;;;;16.73;9.23;;;;;;;7.14;52.59;99733.69;5406866;32;36128;-62
2022/04/05 04:43:50;;;;;;;18.77;10.30;;;;;;;7.22;52.89;99737.75;5399927;32;34448;-64
2022/04/05 04:46:52;;;;;;;14.90;8.53;;;;;;;7.19;53.07;99737.84;5414990;32;44468;-63
2022/04/05 04:49:54;;;;;;;19.70;8.67;;;;;;;7.67;51.56;99752.69;5397937;32;34476;-63
2022/04/05 04:52:56;;;;;;;18.87;8.97;;;;;;;6.82;53.78;99751.34;5422219;32;34488;-62
2022/04/05 04:55:58;;;;;;;18.00;10.03;;;;;;;5.91;57.01;99757.72;5396596;32;35137;-62
2022/04/05 04:59:09;;;;;;;19.40;10.43;;;;;;;6.00;57.38;99765.31;5410662;32;34452;-64
2022/04/05 05:02:11;;;;;;;20.33;11.80;;;;;;;6.34;56.21;99756.41;5403769;32;34586;-63
2022/04/05 05:05:17;;;;;;;18.50;10.63;;;;;;;5.43;59.23;99753.88;5403421;32;34149;-62
2022/04/05 05:08:19;;;;;;;16.97;7.60;;;;;;;5.41;59.52;99760.03;5419056;32;37231;-63
2022/04/05 05:11:21;;;;;;;19.13;11.23;;;;;;;6.43;56.23;99749.13;5398218;32;47068;-64
2022/04/05 05:14:23;;;;;;;23.43;11.57;;;;;;;5.83;58.20;99767.53;5408007;32;35304;-63
2022/04/05 05:17:25;;;;;;;18.37;10.23;;;;;;;5.71;58.92;99764.37;5405821;32;34202;-62
2022/04/05 05:20:28;;;;;;;20.97;11.50;;;;;;;5.80;58.30;99760.66;5428085;32;34769;-62
2022/04/05 05:23:30;;;;;;;19.63;10.33;;;;;;;5.79;58.13;99756.31;5403944;32;34650;-64
2022/04/05 05:26:32;;;;;;;17.37;10.30;;;;;;;6.60;55.64;99743.38;5396330;32;35175;-64
2022/04/05 05:29:34;;;;;;;18.87;10.63;;;;;;;7.83;52.37;99743.34;5430127;32;37746;-64
2022/04/05 05:32:44;;;;;;;16.93;9.30;;;;;;;8.43;50.12;99729.69;5410687;32;34422;-66
2022/04/05 05:35:47;;;;;;;16.03;8.70;;;;;;;8.01;50.37;99736.56;5410766;32;35959;-63
2022/04/05 05:38:49;;;;;;;16.67;9.83;;;;;;;9.86;45.90;99725.19;5397117;32;34802;-65
2022/04/05 05:41:51;;;;;;;17.90;9.87;;;;;;;8.81;47.91;99728.94;5409834;32;44970;-68
2022/04/05 05:44:53;;;;;;;18.40;10.00;;;;;;;8.14;49.89;99729.91;5412612;32;34876;-69
2022/04/05 05:47:56;;;;;;;17.13;9.70;;;;;;;8.13;50.22;99741.31;5401100;32;34882;-65
2022/04/05 05:50:58;;;;;;;36.47;10.93;;;;;;;7.44;52.39;99744.81;5421544;32;35394;-65
2022/04/05 05:54:00;;;;;;;18.97;10.23;;;;;;;8.04;50.95;99738.19;5387923;32;36293;-65
2022/04/05 05:57:02;;;;;;;21.80;11.00;;;;;;;7.91;51.21;99744.81;5400722;32;33222;-64
2022/04/05 06:00:07;;;;;;;18.07;9.93;;;;;;;7.36;53.17;99754.72;5380377;32;34099;-69
2022/04/05 06:03:10;;;;;;;17.63;9.77;;;;;;;7.82;51.78;99764.34;5408270;32;37014;-68
2022/04/05 06:06:13;;;;;;;19.92;10.05;;;;;;;7.24;53.79;99763.84;5418760;32;34138;-70
2022/04/05 06:09:15;;;;;;;17.63;9.70;;;;;;;7.48;53.28;99762.97;5409681;32;35388;-72
2022/04/05 06:12:17;;;;;;;20.57;10.37;;;;;;;7.79;52.29;99773.16;5418682;32;34279;-70
2022/04/05 06:15:19;;;;;;;20.33;9.13;;;;;;;8.03;51.42;99768.75;5408796;32;33984;-66
2022/04/05 06:18:25;;;;;;;16.70;9.00;;;;;;;8.27;50.63;99768.72;5420475;32;44219;-76
2022/04/05 06:21:27;;;;;;;17.47;9.97;;;;;;;8.53;49.54;99771.16;5403007;32;37409;-70
2022/04/05 06:24:30;;;;;;;20.00;10.48;;;;;;;8.01;51.18;99772.34;5410034;32;35678;-67
2022/04/05 06:27:32;;;;;;;18.13;9.37;;;;;;;8.25;50.86;99770.53;5419580;32;33148;-75
2022/04/05 06:30:38;;;;;;;17.73;9.40;;;;;;;9.07;48.54;99761.06;5411263;32;34157;-69
2022/04/05 06:33:40;;;;;;;14.07;8.30;;;;;;;9.69;46.79;99766.19;5406871;32;35464;-65
2022/04/05 06:36:42;;;;;;;15.37;8.30;;;;;;;10.56;43.93;99759.47;5411732;32;34106;-62
2022/04/05 06:39:44;;;;;;;19.17;8.87;;;;;;;10.65;43.74;99754.69;5413738;32;34161;-66
2022/04/05 06:42:47;;;;;;;14.27;7.87;;;;;;;11.53;41.84;99746.66;5411992;32;36226;-66
2022/04/05 06:45:49;;;;;;;16.23;8.73;;;;;;;11.84;40.64;99749.37;5399502;32;35221;-68
2022/04/05 06:48:52;;;;;;;17.23;8.90;;;;;;;11.91;40.36;99742.84;5412414;32;44470;-81
2022/04/05 06:51:54;;;;;;;15.63;8.90;;;;;;;11.23;42.07;99734.19;5408359;32;34142;-81
2022/04/05 06:54:57;;;;;;;15.43;8.82;;;;;;;11.32;41.77;99738.09;5394870;32;34807;-72
2022/04/05 06:57:59;;;;;;;13.87;7.70;;;;;;;10.56;43.18;99738.47;5386798;32;34779;-78
2022/04/05 07:01:01;;;;;;;15.20;8.00;;;;;;;12.21;39.43;99734.16;5411709;32;35008;-74
2022/04/05 07:04:05;;;;;;;16.20;8.70;;;;;;;11.74;40.53;99728.88;5410839;32;33751;-81
2022/04/05 07:07:08;;;;;;;16.83;8.80;;;;;;;11.10;42.07;99741.84;5409851;32;34028;-74
2022/04/05 07:10:17;;;;;;;15.63;8.97;;;;;;;10.50;44.06;99743.16;5407990;32;34182;-71
2022/04/05 07:13:19;;;;;;;17.63;8.80;;;;;;;10.64;43.45;99740.72;5411147;32;34012;-74
2022/04/05 07:16:22;;;;;;;17.27;8.60;;;;;;;10.90;43.12;99735.94;5410886;32;44865;-71
2022/04/05 07:19:24;;;;;;;16.50;7.83;;;;;;;11.48;42.31;99732.91;5411900;32;34220;-74
2022/04/05 07:22:27;;;;;;;16.50;8.57;;;;;;;12.56;39.38;99726.91;5409766;32;36520;-79
2022/04/05 07:25:29;;;;;;;15.52;8.05;;;;;;;12.63;39.10;99735.31;5402052;32;34154;-83
2022/04/05 07:28:32;;;;;;;14.17;7.57;;;;;;;12.79;38.77;99735.25;5393499;32;34443;-81
2022/04/05 07:31:35;;;;;;;16.42;8.20;;;;;;;13.70;36.91;99726.25;5416338;32;35757;-82
2022/04/05 07:34:37;;;;;;;15.47;7.70;;;;;;;13.56;37.21;99721.81;5405691;32;34275;-78
2022/04/05 07:37:39;;;;;;;15.23;7.57;;;;;;;15.26;33.55;99705.41;5418105;32;35738;-70
2022/04/05 07:40:52;;;;;;;17.60;7.57;;;;;;;16.07;32.62;99710.31;5404258;32;34237;-80
2022/04/05 07:43:54;;;;;;;11.13;7.03;;;;;;;15.92;32.70;99707.81;5402019;32;43291;-73
2022/04/05 07:46:56;;;;;;;11.12;6.15;;;;;;;17.64;28.95;99708.97;5397651;32;35275;-70
2022/04/05 07:49:58;;;;;;;12.43;6.30;;;;;;;16.75;29.36;99718.50;5405493;32;35329;-74
2022/04/05 07:53:01;;;;;;;9.97;6.23;;;;;;;14.83;32.16;99718.94;5406377;32;35732;-75
2022/04/05 07:56:04;;;;;;;11.93;6.07;;;;;;;14.38;33.80;99728.09;5395553;32;35364;-75
2022/04/05 07:59:06;;;;;;;14.40;6.55;;;;;;;15.53;31.57;99722.03;5409206;32;34890;-79
2022/04/05 08:02:08;;;;;;;12.07;6.20;;;;;;;14.58;33.92;99725.84;5407390;32;34224;-69
2022/04/05 08:05:30;;;;;;;14.70;6.30;;;;;;;15.08;32.50;99723.44;5407194;32;44191;-75
2022/04/05 08:08:34;;;;;;;12.97;5.97;;;;;;;15.10;32.50;99717.06;5416644;32;35745;-75
2022/04/05 08:11:56;;;;;;;11.33;5.93;;;;;;;14.49;33.47;99723.84;5382638;32;44900;-77
2022/04/05 08:14:58;;;;;;;11.53;6.00;;;;;;;15.55;31.73;99714.00;5410820;32;33743;-80
2022/04/05 08:18:01;;;;;;;9.55;5.60;;;;;;;14.91;32.87;99719.25;5403316;32;34557;-74
2022/04/05 08:21:03;;;;;;;20.50;6.47;;;;;;;15.45;32.06;99714.62;5401191;32;34109;-79
2022/04/05 08:24:06;;;;;;;13.48;6.10;;;;;;;16.42;30.15;99713.88;5399374;32;35431;-74
2022/04/05 08:27:08;;;;;;;10.73;5.35;;;;;;;16.25;30.35;99722.22;5390323;32;34137;-69
2022/04/05 08:30:15;;;;;;;12.37;5.30;;;;;;;16.52;29.73;99708.72;5424318;32;34386;-74
2022/04/05 08:33:18;;;;;;;12.20;5.77;;;;;;;16.90;28.63;99713.00;5398875;32;35150;-69
2022/04/05 08:36:20;;;;;;;10.35;5.75;;;;;;;16.45;29.32;99710.16;5429397;32;33929;-69
2022/04/05 08:39:22;;;;;;;11.53;6.27;;;;;;;15.78;30.53;99705.31;5401530;32;44477;-71
2022/04/05 08:42:25;;;;;;;10.63;5.83;;;;;;;15.26;31.04;99708.06;5409043;32;35833;-77
2022/04/05 08:45:29;;;;;;;12.73;6.10;;;;;;;15.88;30.40;99714.28;5420570;32;35552;-74
2022/04/05 08:48:34;;;;;;;11.03;5.67;;;;;;;16.00;30.56;99712.53;5412853;32;33651;-85
2022/04/05 08:51:37;;;;;;;10.67;6.10;;;;;;;14.79;32.39;99706.84;5407185;32;34110;-73
2022/04/05 08:54:39;;;;;;;11.13;5.63;;;;;;;15.52;31.77;99717.72;5398687;32;35987;-75
2022/04/05 08:57:41;;;;;;;9.50;5.37;;;;;;;15.90;30.78;99716.81;5388240;32;34142;-84
2022/04/05 09:00:43;;;;;;;10.32;5.37;;;;;;;15.77;30.60;99713.34;5412654;32;33479;-70
2022/04/05 09:03:46;;;;;;;11.97;5.50;;;;;;;15.67;30.70;99708.69;5404516;32;34107;-82
2022/04/05 09:06:48;;;;;;;10.97;5.67;;;;;;;14.64;31.86;99706.09;5393725;32;34333;-76
2022/04/05 09:10:13;;;;;;;11.17;5.97;;;;;;;13.76;33.77;99718.78;5417885;32;34148;-71
2022/04/05 09:13:25;;;;;;;13.20;6.23;;;;;;;14.75;32.76;99718.59;5425972;32;34128;-75
2022/04/05 09:16:31;;;;;;;;;;;;;;;14.53;33.27;99720.03;5402693;32;43832;-72
2022/04/05 09:19:38;;;;;;;13.60;5.93;;;;;;;14.20;34.58;99711.63;5414076;32;35461;-73
2022/04/05 09:22:41;;;;;;;15.93;6.20;;;;;;;15.03;32.59;99713.16;5418488;32;34038;-75
2022/04/05 09:25:54;;;;;;;10.95;6.05;;;;;;;15.09;32.98;99710.09;5402415;32;34821;-72
2022/04/05 09:29:05;;;;;;;15.93;7.22;;;;;;;14.87;32.32;99696.59;5405103;32;45361;-68
2022/04/05 09:32:08;;;;;;;10.87;5.27;;;;;;;15.10;31.64;99698.53;5400495;32;34149;-70
2022/04/05 09:35:11;;;;;;;9.95;5.20;;;;;;;15.08;31.74;99700.44;5387990;32;34025;-82
2022/04/05 09:38:15;;;;;;;9.65;5.28;;;;;;;14.96;32.01;99706.56;5411839;32;34344;-73
2022/04/05 09:41:22;;;;;;;9.47;4.73;;;;;;;14.50;32.79;99704.37;5414513;32;34203;-73
2022/04/05 09:44:31;;;;;;;11.37;5.17;;;;;;;14.67;32.24;99699.75;5430142;32;44115;-72
2022/04/05 09:47:33;;;;;;;9.63;4.77;;;;;;;14.48;33.12;99694.81;5390644;32;34146;-80
2022/04/05 09:51:17;;;;;;;14.63;4.70;;;;;;;14.16;33.33;99704.81;5408917;32;36113;-75
2022/04/05 09:54:27;;;;;;;9.13;4.30;;;;;;;14.03;33.50;99707.41;5416405;32;34367;-79
2022/04/05 09:57:32;;;;;;;9.23;4.33;;;;;;;13.30;34.75;99710.22;5381171;32;46489;-76
2022/04/05 10:00:34;;;;;;;9.93;4.80;;;;;;;13.43;35.08;99705.88;5409688;32;34343;-78
2022/04/05 10:03:43;;;;;;;9.50;4.60;;;;;;;13.75;34.96;99706.53;5412399;32;33966;-79
2022/04/05 10:06:47;;;;;;;9.50;5.20;;;;;;;13.26;36.23;99716.63;5419464;32;34780;-71
2022/04/05 10:09:50;;;;;;;9.70;5.47;;;;;;;13.56;36.50;99713.91;5418273;32;34144;-76
2022/04/05 10:12:53;;;;;;;10.48;5.82;;;;;;;14.01;36.07;99718.09;5400719;32;44753;-85
2022/04/05 10:15:55;;;;;;;13.43;5.50;;;;;;;13.89;36.53;99712.72;5414192;32;34644;-76
2022/04/05 10:19:00;;;;;;;12.37;6.22;;;;;;;14.01;36.72;99719.87;5395215;32;36083;-76
2022/04/05 10:22:02;;;;;;;10.00;5.70;;;;;;;13.76;37.63;99718.78;5413723;32;34151;-78
2022/04/05 10:25:05;;;;;;;10.47;6.00;;;;;;;14.57;36.22;99713.59;5398277;32;34143;-83
2022/04/05 10:28:07;;;;;;;11.63;5.65;;;;;;;14.24;36.89;99706.03;5403326;32;35694;-81
2022/04/05 10:31:16;;;;;;;11.65;5.75;;;;;;;15.18;34.99;99703.28;5420780;32;35362;-74
2022/04/05 10:34:22;;;;;;;11.10;5.53;;;;;;;14.54;35.96;99703.19;5413528;32;36156;-81
2022/04/05 10:37:38;;;;;;;9.10;4.97;;;;;;;14.84;35.53;99702.97;5421571;32;43482;-75
2022/04/05 10:40:41;;;;;;;11.00;4.90;;;;;;;14.28;35.20;99704.88;5412209;32;35448;-82
2022/04/05 10:43:45;;;;;;;11.30;4.95;;;;;;;15.55;33.52;99706.03;5420613;32;34556;-73
2022/04/05 10:46:53;;;;;;;11.47;5.10;;;;;;;15.51;33.05;99701.91;5387423;32;34924;-74
2022/04/05 10:50:17;;;;;;;9.10;4.73;;;;;;;16.36;31.43;99695.78;5401441;32;34472;-81
2022/04/05 10:53:20;;;;;;;11.13;4.67;;;;;;;17.45;29.21;99703.41;5420584;32;33977;-75
2022/04/05 10:56:24;;;;;;;7.60;4.50;;;;;;;16.49;30.44;99690.41;5392878;32;42928;-73
2022/04/05 10:59:26;;;;;;;11.10;4.90;;;;;;;16.58;30.40;99689.69;5414717;32;35984;-71
2022/04/05 11:02:36;;;;;;;9.23;4.37;;;;;;;16.16;31.37;99694.56;5400017;32;34096;-71
2022/04/05 11:05:40;;;;;;;12.67;5.27;;;;;;;16.56;30.35;99691.62;5412171;32;35391;-72
2022/04/05 11:08:44;;;;;;;8.33;4.47;;;;;;;16.53;31.60;99697.16;5417062;32;35335;-74
2022/04/05 11:11:48;;;;;;;8.17;4.07;;;;;;;15.62;32.87;99689.63;5402888;32;37421;-72
2022/04/05 11:14:51;;;;;;;;;;;;;;;16.42;31.50;99690.00;5419594;32;33811;-73
2022/04/05 11:17:54;;;;;;;8.48;4.10;;;;;;;16.52;31.27;99698.97;5406033;32;44243;-72
2022/04/05 11:20:57;;;;;;;8.40;3.58;;;;;;;16.59;31.14;99690.53;5411965;32;36742;-73
2022/04/05 11:24:00;;;;;;;8.70;3.23;;;;;;;17.17;30.10;99692.28;5414540;32;34862;-84
2022/04/05 11:27:28;;;;;;;7.82;3.42;;;;;;;17.12;30.21;99682.97;5405202;32;36032;-82
2022/04/05 11:30:38;;;;;;;11.90;3.60;;;;;;;15.86;32.38;99686.19;5416587;32;45955;-72
2022/04/05 11:33:41;;;;;;;9.03;2.73;;;;;;;15.62;33.42;99702.88;5409274;32;34318;-91
2022/04/05 11:36:44;;;;;;;4.23;2.57;;;;;;;15.77;33.06;99708.03;5427677;32;34164;-75
2022/04/05 11:39:46;;;;;;;4.47;2.57;;;;;;;16.14;32.92;99714.19;5414001;32;35434;-83
2022/04/05 11:42:52;;;;;;;7.03;2.30;;;;;;;15.91;33.17;99702.63;5393600;32;35271;-75
2022/04/05 11:45:56;;;;;;;5.55;2.67;;;;;;;16.44;33.22;99706.66;5417043;32;34052;-70
2022/04/05 11:49:01;;;;;;;7.13;2.80;;;;;;;17.39;31.65;99701.25;5396081;32;35147;-74
2022/04/05 11:52:04;;;;;;;4.97;3.00;;;;;;;16.53;33.25;99698.00;5408750;32;34976;-75
2022/04/05 11:58:42;;;;;;;9.43;3.50;;;;;;;14.81;37.32;99703.19;5386226;32;34131;-82
2022/04/05 12:01:50;;;;;;;5.37;2.90;;;;;;;15.56;36.50;99719.16;5426881;32;34491;-72
2022/04/05 12:04:55;;;;;;;8.33;3.10;;;;;;;16.20;35.09;99721.69;5382488;32;44483;-75
2022/04/05 12:07:58;;;;;;;4.63;2.70;;;;;;;16.52;35.04;99706.06;5413817;32;34216;-71
2022/04/05 12:11:00;;;;;;;5.93;2.80;;;;;;;17.71;32.67;99714.66;5413631;32;35508;-74
2022/04/05 12:14:09;;;;;;;4.10;2.47;;;;;;;17.14;33.59;99723.56;5417427;32;34827;-79
2022/04/05 12:17:12;;;;;;;7.33;2.73;;;;;;;16.64;34.45;99706.97;5419063;32;35843;-76
2022/04/05 12:20:17;;;;;;;6.00;2.63;;;;;;;18.62;30.99;99709.91;5411081;32;34396;-73
2022/04/05 12:23:21;;;;;;;4.63;2.67;;;;;;;17.00;34.11;99698.03;5420724;32;33967;-76
2022/04/05 12:26:24;;;;;;;5.00;2.77;;;;;;;17.95;31.85;99695.94;5411389;32;46709;-75
2022/04/05 12:29:28;;;;;;;5.22;2.95;;;;;;;18.62;31.26;99688.59;5408515;32;34262;-73
2022/04/05 12:32:35;;;;;;;6.33;2.93;;;;;;;18.23;31.85;99690.09;5410831;32;34246;-68
2022/04/05 12:35:37;;;;;;;8.97;4.40;;;;;;;19.84;29.18;99687.94;5416009;32;35402;-85
2022/04/05 12:38:40;;;;;;;5.95;2.70;;;;;;;16.20;35.39;99692.53;5404573;32;36280;-75
2022/04/05 12:41:42;;;;;;;4.87;2.33;;;;;;;17.85;32.96;99671.91;5409000;32;34527;-74
2022/04/05 12:44:56;;;;;;;4.10;2.30;;;;;;;17.01;34.10;99682.03;5414046;32;34366;-78
2022/04/05 12:48:11;;;;;;;4.97;2.70;;;;;;;18.07;32.21;99660.38;5412170;32;43298;-77
2022/04/05 12:51:30;;;;;;;5.37;2.37;;;;;;;20.61;28.27;99654.31;5396820;32;35640;-80
2022/04/05 12:54:34;;;;;;;2.97;2.10;;;;;;;17.19;32.64;99684.19;5409570;32;35379;-80
2022/04/05 12:57:37;;;;;;;4.60;2.43;;;;;;;17.91;31.92;99678.56;5364997;32;33946;-79
2022/04/05 13:00:44;;;;;;;3.70;2.30;;;;;;;17.93;31.76;99687.25;5424797;32;33922;-82
2022/04/05 13:03:46;;;;;;;4.13;2.23;;;;;;;18.30;31.49;99663.81;5395149;32;35540;-75
2022/04/05 13:07:02;;;;;;;3.47;2.10;;;;;;;20.80;27.62;99648.94;5417861;32;34238;-83
2022/04/05 13:10:12;;;;;;;6.33;2.43;;;;;;;19.93;28.81;99655.09;5418723;32;36132;-78
2022/04/05 13:13:34;;;;;;;3.77;2.40;;;;;;;19.43;28.98;99663.03;5412199;32;33810;-75
2022/04/05 13:16:37;;;;;;;4.93;2.50;;;;;;;16.51;34.50;99654.00;5407153;32;36198;-79
2022/04/05 13:19:40;;;;;;;4.87;2.83;;;;;;;17.54;32.79;99665.50;5393790;32;34680;-82
2022/04/05 13:22:42;;;;;;;5.95;3.03;;;;;;;17.04;34.39;99657.03;5387863;32;34321;-73
2022/04/05 13:25:44;;;;;;;6.83;3.00;;;;;;;16.17;35.73;99659.16;5407615;32;35772;-74
2022/04/05 13:28:47;;;;;;;5.33;2.93;;;;;;;15.49;36.79;99667.59;5409885;32;35791;-70
2022/04/05 13:31:51;;;;;;;5.57;2.80;;;;;;;16.15;35.88;99657.56;5415784;32;34088;-73
2022/04/05 13:34:53;;;;;;;9.70;3.63;;;;;;;15.39;37.71;99663.88;5408980;32;44318;-76
2022/04/05 13:37:55;;;;;;;5.53;2.97;;;;;;;15.04;38.57;99653.97;5395285;32;34201;-72
2022/04/05 13:40:58;;;;;;;5.15;2.80;;;;;;;15.80;36.92;99658.34;5413624;32;36944;-72
2022/04/05 13:44:02;;;;;;;8.63;2.85;;;;;;;16.46;35.90;99658.78;5408449;32;35483;-74
2022/04/05 13:47:05;;;;;;;4.63;2.90;;;;;;;16.03;36.73;99655.81;5414585;32;35175;-76
2022/04/05 13:50:07;;;;;;;4.20;2.70;;;;;;;15.30;38.28;99659.25;5413338;32;34336;-71
2022/04/05 13:53:10;;;;;;;4.80;2.60;;;;;;;15.47;38.01;99652.78;5422821;32;34358;-81
2022/04/05 13:56:13;;;;;;;6.70;3.10;;;;;;;16.06;37.21;99651.13;5387465;32;34243;-71
2022/04/05 13:59:16;;;;;;;5.53;2.90;;;;;;;15.89;37.28;99668.25;5416979;32;34243;-68
2022/04/05 14:02:22;;;;;;;6.77;3.10;;;;;;;15.79;37.55;99661.09;5403553;32;45996;-74
2022/04/05 14:05:24;;;;;;;5.20;2.60;;;;;;;16.16;36.68;99652.13;5398354;32;34675;-71
2022/04/05 14:08:27;;;;;;;6.62;2.70;;;;;;;16.08;36.98;99649.22;5415154;32;34103;-74
2022/04/05 14:11:33;;;;;;;7.20;2.90;;;;;;;16.46;36.34;99633.09;5409110;32;36724;-78
2022/04/05 14:14:36;;;;;;;4.60;2.50;;;;;;;14.83;40.04;99642.22;5397914;32;35419;-79
2022/04/05 14:17:38;;;;;;;7.22;3.00;;;;;;;15.69;38.30;99631.75;5388700;32;34572;-79
2022/04/05 14:20:41;;;;;;;4.72;2.53;;;;;;;15.24;38.34;99631.41;5422418;32;35501;-78
2022/04/05 14:23:46;;;;;;;4.03;2.60;;;;;;;15.74;38.32;99639.38;5391586;32;33433;-78
2022/04/05 14:26:48;;;;;;;6.43;2.55;;;;;;;14.83;39.59;99636.94;5382952;32;34194;-78